Valparaiso, Indiana
Current Conditions -  °F | °C
As of 11:56 AM on Saturday 25 Oct 2014 (Local Time) from KVPZ Reporting Station
Clear Clear  
Wind Chill: 69°   Ceiling: Unl
Heat Index: 69°   Visibility: 10mi
Dew Point: 46°   Wind: 12mph
Humidity: 44%   Direction: 320°NW
Pressure: 29.95"   Gusts: 18mph
Location:  41.47°N, 87.06°W
Report Text: KVPZ 251656Z AUTO 32010G16KT 10SM CLR 21/08 A2995 RMK AO2 SLP142 T02060078 TSNO
Loading
Personal Weather Stations






























Interactive Weather Map
Tropical Storm Tracking
New forecast layout! Learn more

10-Day Weather Forecast

Advertisements
Track Severe Weather on mobile